Time;durP1;ratioP1;P1;durP2;ratioP2;P2;SDS_P1;SDS_P2;PMS_P1;PMS_P2;Temp;Humidity;BMP_temperature;BMP_pressure;BME280_temperature;BME280_humidity;BME280_pressure;Samples;Min_cycle;Max_cycle;Signal;HPM_P1;HPM_P2
2023/12/23 00:02:17;;;;;;;;;;;8.40;99.90;;;;;;5051805;28;19921;-66
2023/12/23 00:04:46;;;;;;;;;;;8.20;99.90;;;;;;5057459;28;19927;-67
2023/12/23 00:07:14;;;;;;;;;;;8.00;99.90;;;;;;5060490;28;19920;-68
2023/12/23 00:09:42;;;;;;;;;;;7.90;99.90;;;;;;5057888;28;19927;-67
2023/12/23 00:12:10;;;;;;;;;;;7.80;99.90;;;;;;5061280;28;19928;-66
2023/12/23 00:14:38;;;;;;;;;;;7.70;99.90;;;;;;5059494;28;19935;-66
2023/12/23 00:17:06;;;;;;;;;;;7.60;99.90;;;;;;5060204;28;19921;-65
2023/12/23 00:19:33;;;;;;;;;;;7.60;99.90;;;;;;5062540;28;20317;-66
2023/12/23 00:22:03;;;;;;;;;;;7.60;99.90;;;;;;5062261;28;19963;-65
2023/12/23 00:24:31;;;;;;;;;;;7.60;99.90;;;;;;5051236;28;19932;-66
2023/12/23 00:26:59;;;;;;;;;;;7.60;99.90;;;;;;5039683;28;19921;-65
2023/12/23 00:29:27;;;;;;;;;;;7.50;99.90;;;;;;5062454;28;20175;-65
2023/12/23 00:31:55;;;;;;;;;;;7.50;99.90;;;;;;5062927;28;19985;-65
2023/12/23 00:34:23;;;;;;;;;;;7.50;99.90;;;;;;5059078;28;19925;-65
2023/12/23 00:36:50;;;;;;;;;;;7.60;99.90;;;;;;5059542;28;20380;-66
2023/12/23 00:39:20;;;;;;;;;;;7.50;99.90;;;;;;5060876;28;20296;-66
2023/12/23 00:41:47;;;;;;;;;;;7.50;99.90;;;;;;5062957;28;19982;-66
2023/12/23 00:44:15;;;;;;;;;;;7.50;99.90;;;;;;5060173;28;19924;-66
2023/12/23 00:46:44;;;;;;;;;;;7.40;99.90;;;;;;5059400;28;19921;-66
2023/12/23 00:49:11;;;;;;;;;;;7.40;99.90;;;;;;5059865;28;19927;-66
2023/12/23 00:51:39;;;;;;;;;;;7.40;99.90;;;;;;5060539;28;19928;-66
2023/12/23 00:54:07;;;;;;;;;;;7.50;99.90;;;;;;5057683;28;20388;-66
2023/12/23 00:56:36;;;;;;;;;;;7.50;99.90;;;;;;5052294;28;19958;-66
2023/12/23 00:59:04;;;;;;;;;;;7.60;99.90;;;;;;5058846;28;19928;-66
2023/12/23 01:01:32;;;;;;;;;;;7.60;99.90;;;;;;5062808;28;19970;-66
2023/12/23 01:03:59;;;;;;;;;;;7.60;99.90;;;;;;5062163;28;19920;-66
2023/12/23 01:06:27;;;;;;;;;;;7.70;99.90;;;;;;5050836;28;20376;-67
2023/12/23 01:08:55;;;;;;;;;;;7.70;99.90;;;;;;5058373;28;19920;-66
2023/12/23 01:11:23;;;;;;;;;;;7.70;99.90;;;;;;5061711;28;19925;-66
2023/12/23 01:13:52;;;;;;;;;;;7.70;99.90;;;;;;5062172;28;19920;-66
2023/12/23 01:16:20;;;;;;;;;;;7.70;99.90;;;;;;5059460;28;19927;-67
2023/12/23 01:18:47;;;;;;;;;;;7.90;99.90;;;;;;5058189;28;20431;-66
2023/12/23 01:21:20;;;;;;;;;;;7.90;99.90;;;;;;5060606;28;19986;-67
2023/12/23 01:23:47;;;;;;;;;;;8.10;99.90;;;;;;5059859;28;20011;-66
2023/12/23 01:26:15;;;;;;;;;;;8.10;99.90;;;;;;5040629;28;19921;-66
2023/12/23 01:28:43;;;;;;;;;;;8.10;99.90;;;;;;5052310;28;20394;-66
2023/12/23 01:31:12;;;;;;;;;;;8.10;99.90;;;;;;5065045;28;19921;-66
2023/12/23 01:33:40;;;;;;;;;;;8.20;99.90;;;;;;5062382;28;19920;-65
2023/12/23 01:36:08;;;;;;;;;;;8.30;99.90;;;;;;5062871;28;19956;-66
2023/12/23 01:38:36;;;;;;;;;;;8.40;99.90;;;;;;5065511;28;19928;-67
2023/12/23 01:41:05;;;;;;;;;;;8.30;99.90;;;;;;5066476;28;20326;-65
2023/12/23 01:43:33;;;;;;;;;;;8.40;99.90;;;;;;5054738;28;19921;-68
2023/12/23 01:46:01;;;;;;;;;;;8.40;99.90;;;;;;5062478;28;19920;-67
2023/12/23 01:48:32;;;;;;;;;;;8.50;99.90;;;;;;5064760;28;20062;-67
2023/12/23 01:51:00;;;;;;;;;;;8.60;99.90;;;;;;5058492;28;19926;-67
2023/12/23 01:53:28;;;;;;;;;;;8.70;99.90;;;;;;5065278;28;19940;-68
2023/12/23 01:55:55;;;;;;;;;;;8.80;99.90;;;;;;5040666;28;19920;-66
2023/12/23 01:58:23;;;;;;;;;;;8.80;99.90;;;;;;5047282;28;19930;-66
2023/12/23 02:00:51;;;;;;;;;;;8.80;99.90;;;;;;5065726;28;19924;-66
2023/12/23 02:03:20;;;;;;;;;;;8.80;99.90;;;;;;5063343;28;19924;-66
2023/12/23 02:05:49;;;;;;;;;;;8.80;99.90;;;;;;5045385;28;20327;-66
2023/12/23 02:08:17;;;;;;;;;;;8.80;99.90;;;;;;5062689;28;19921;-66
2023/12/23 02:10:47;;;;;;;;;;;8.70;99.90;;;;;;5065558;28;19986;-66
2023/12/23 02:13:17;;;;;;;;;;;8.60;99.90;;;;;;5064078;28;19920;-66
2023/12/23 02:15:47;;;;;;;;;;;8.60;99.90;;;;;;5061856;28;20015;-66
2023/12/23 02:18:15;;;;;;;;;;;8.50;99.90;;;;;;5062118;28;19947;-65
2023/12/23 02:20:43;;;;;;;;;;;8.50;99.90;;;;;;5065371;28;19968;-65
2023/12/23 02:23:13;;;;;;;;;;;8.30;99.90;;;;;;5064919;28;20387;-64
2023/12/23 02:25:41;;;;;;;;;;;8.40;99.90;;;;;;5044836;28;20238;-66
2023/12/23 02:28:09;;;;;;;;;;;8.30;99.90;;;;;;5044680;28;19921;-65
2023/12/23 02:30:39;;;;;;;;;;;8.40;99.90;;;;;;5065199;28;19920;-65
2023/12/23 02:33:07;;;;;;;;;;;8.40;99.90;;;;;;5065474;28;19920;-65
2023/12/23 02:35:35;;;;;;;;;;;8.50;99.90;;;;;;5036485;28;19920;-65
2023/12/23 02:38:03;;;;;;;;;;;8.40;99.90;;;;;;5060717;28;19924;-66
2023/12/23 02:40:32;;;;;;;;;;;8.30;99.90;;;;;;5063071;28;19928;-66
2023/12/23 02:43:01;;;;;;;;;;;8.20;99.90;;;;;;5065090;28;19932;-66
2023/12/23 02:45:29;;;;;;;;;;;8.20;99.90;;;;;;5062279;28;19920;-66
2023/12/23 02:47:56;;;;;;;;;;;8.20;99.90;;;;;;5060765;28;19951;-66
2023/12/23 02:50:24;;;;;;;;;;;8.20;99.90;;;;;;5060882;28;19927;-65
2023/12/23 02:52:52;;;;;;;;;;;8.30;99.90;;;;;;5061152;28;19999;-65
2023/12/23 02:55:21;;;;;;;;;;;8.30;99.90;;;;;;5047102;28;19932;-65
2023/12/23 02:57:50;;;;;;;;;;;8.20;99.90;;;;;;5044178;28;19920;-65
2023/12/23 03:00:18;;;;;;;;;;;8.20;99.90;;;;;;5061902;28;19924;-64
2023/12/23 03:02:45;;;;;;;;;;;8.20;99.90;;;;;;5064478;28;19920;-65
2023/12/23 03:05:14;;;;;;;;;;;8.10;99.90;;;;;;5063944;28;20446;-64
2023/12/23 03:07:42;;;;;;;;;;;8.00;99.90;;;;;;5060399;28;19974;-65
2023/12/23 03:10:10;;;;;;;;;;;8.00;99.90;;;;;;5060713;28;19924;-64
2023/12/23 03:12:38;;;;;;;;;;;7.90;99.90;;;;;;5064312;28;19927;-65
2023/12/23 03:15:08;;;;;;;;;;;7.90;99.90;;;;;;5064358;28;19920;-65
2023/12/23 03:17:36;;;;;;;;;;;7.70;99.90;;;;;;5060541;28;19925;-65
2023/12/23 03:20:04;;;;;;;;;;;7.60;99.90;;;;;;5060442;28;19929;-65
2023/12/23 03:22:33;;;;;;;;;;;7.60;99.90;;;;;;5063048;28;20348;-65
2023/12/23 03:25:00;;;;;;;;;;;7.70;99.90;;;;;;5051578;28;19924;-65
2023/12/23 03:27:28;;;;;;;;;;;7.70;99.90;;;;;;5043659;28;19920;-65
2023/12/23 03:29:56;;;;;;;;;;;7.70;99.90;;;;;;5063833;28;19921;-65
2023/12/23 03:32:25;;;;;;;;;;;7.70;99.90;;;;;;5062491;28;19927;-65
2023/12/23 03:34:53;;;;;;;;;;;7.80;99.90;;;;;;5060295;28;19924;-64
2023/12/23 03:37:21;;;;;;;;;;;7.80;99.90;;;;;;5061122;28;20305;-64
2023/12/23 03:39:48;;;;;;;;;;;7.80;99.90;;;;;;5063072;28;19927;-64
2023/12/23 03:42:16;;;;;;;;;;;7.80;99.90;;;;;;5063587;28;19982;-64
2023/12/23 03:44:44;;;;;;;;;;;7.70;99.90;;;;;;5060348;28;19921;-64
2023/12/23 03:47:12;;;;;;;;;;;7.70;99.90;;;;;;5060152;28;19925;-65
2023/12/23 03:49:42;;;;;;;;;;;7.70;99.90;;;;;;5060062;28;19927;-65
2023/12/23 03:52:10;;;;;;;;;;;7.80;99.90;;;;;;5058627;28;20338;-65
2023/12/23 03:54:37;;;;;;;;;;;7.70;99.90;;;;;;5053303;28;19928;-65
2023/12/23 03:57:05;;;;;;;;;;;7.70;99.90;;;;;;5042900;28;19921;-65
2023/12/23 03:59:32;;;;;;;;;;;7.70;99.90;;;;;;5060478;28;19920;-65
2023/12/23 04:02:00;;;;;;;;;;;7.80;99.90;;;;;;5057313;28;20009;-65
2023/12/23 04:04:28;;;;;;;;;;;7.80;99.90;;;;;;5061998;28;19920;-66
2023/12/23 04:06:57;;;;;;;;;;;7.90;99.90;;;;;;5056436;28;19927;-65
2023/12/23 04:09:25;;;;;;;;;;;7.90;99.90;;;;;;5061700;28;20020;-66
2023/12/23 04:11:52;;;;;;;;;;;7.90;99.90;;;;;;5059449;28;20133;-65
2023/12/23 04:14:20;;;;;;;;;;;8.00;99.90;;;;;;5059768;28;20381;-64
2023/12/23 04:16:48;;;;;;;;;;;8.00;99.90;;;;;;5063144;28;19950;-66
2023/12/23 04:19:16;;;;;;;;;;;8.10;99.90;;;;;;5062566;28;19924;-66
2023/12/23 04:21:44;;;;;;;;;;;8.00;99.90;;;;;;5059286;28;19921;-66
2023/12/23 04:24:13;;;;;;;;;;;8.00;99.90;;;;;;5059561;28;19925;-67
2023/12/23 04:26:40;;;;;;;;;;;8.10;99.90;;;;;;5039825;28;19936;-66
2023/12/23 04:29:08;;;;;;;;;;;8.10;99.90;;;;;;5048135;28;19920;-65
2023/12/23 04:31:36;;;;;;;;;;;8.10;99.90;;;;;;5060557;28;20014;-66
2023/12/23 04:34:04;;;;;;;;;;;8.30;99.90;;;;;;5059400;28;19921;-65
2023/12/23 04:36:32;;;;;;;;;;;8.30;99.90;;;;;;5060685;28;19924;-66
2023/12/23 04:39:03;;;;;;;;;;;8.40;99.90;;;;;;5062009;28;19928;-66
2023/12/23 04:41:32;;;;;;;;;;;8.50;99.90;;;;;;5061238;28;20372;-65
2023/12/23 04:44:00;;;;;;;;;;;8.50;99.90;;;;;;5059272;28;20351;-65
2023/12/23 04:46:28;;;;;;;;;;;8.50;99.90;;;;;;5059857;28;19935;-65
2023/12/23 04:48:56;;;;;;;;;;;8.50;99.90;;;;;;5061961;28;19920;-65
2023/12/23 04:51:24;;;;;;;;;;;8.50;99.90;;;;;;5053889;28;19963;-65
2023/12/23 04:53:52;;;;;;;;;;;8.50;99.90;;;;;;5059968;28;19931;-65
2023/12/23 04:56:19;;;;;;;;;;;8.50;99.90;;;;;;5059285;28;19921;-65
2023/12/23 04:58:49;;;;;;;;;;;8.60;99.90;;;;;;5050058;28;19921;-65
2023/12/23 05:01:16;;;;;;;;;;;8.60;99.90;;;;;;5059073;28;20282;-65
2023/12/23 05:03:44;;;;;;;;;;;8.60;99.90;;;;;;5061503;28;20307;-66
2023/12/23 05:06:12;;;;;;;;;;;8.60;99.90;;;;;;5057847;28;19920;-65
2023/12/23 05:08:40;;;;;;;;;;;8.60;99.90;;;;;;5058390;28;19951;-65
2023/12/23 05:11:08;;;;;;;;;;;8.60;99.90;;;;;;5058948;28;19920;-65
2023/12/23 05:13:36;;;;;;;;;;;8.60;99.90;;;;;;5060414;28;19927;-65
2023/12/23 05:16:05;;;;;;;;;;;8.60;99.90;;;;;;5062375;28;19928;-63
2023/12/23 05:18:33;;;;;;;;;;;8.60;99.90;;;;;;5060331;28;20346;-65
2023/12/23 05:21:01;;;;;;;;;;;8.60;99.90;;;;;;5058465;28;19920;-65
2023/12/23 05:23:29;;;;;;;;;;;8.60;99.90;;;;;;5059019;28;20034;-64
2023/12/23 05:25:56;;;;;;;;;;;8.60;99.90;;;;;;5034929;28;19921;-64
2023/12/23 05:28:24;;;;;;;;;;;8.60;99.90;;;;;;5047592;28;19924;-65
2023/12/23 05:30:52;;;;;;;;;;;8.60;99.90;;;;;;5046282;28;19925;-65
2023/12/23 05:33:24;;;;;;;;;;;8.60;99.90;;;;;;5055111;28;20011;-65
2023/12/23 05:35:52;;;;;;;;;;;8.60;99.90;;;;;;5050754;28;20334;-65
2023/12/23 05:38:20;;;;;;;;;;;8.60;99.90;;;;;;5038778;28;19928;-65
2023/12/23 05:40:48;;;;;;;;;;;8.60;99.90;;;;;;5059486;28;20769;-66
2023/12/23 05:43:15;;;;;;;;;;;8.50;99.90;;;;;;5058768;28;19921;-66
2023/12/23 05:45:43;;;;;;;;;;;8.50;99.90;;;;;;5061008;28;19920;-65
2023/12/23 05:48:11;;;;;;;;;;;8.60;99.90;;;;;;5061675;28;19926;-66
2023/12/23 05:50:40;;;;;;;;;;;8.60;99.90;;;;;;5053375;28;19924;-66
2023/12/23 05:53:08;;;;;;;;;;;8.60;99.90;;;;;;5062115;28;19928;-65
2023/12/23 05:55:36;;;;;;;;;;;8.60;99.90;;;;;;5044148;28;19928;-65
2023/12/23 05:58:04;;;;;;;;;;;8.60;99.90;;;;;;5041381;28;19947;-65
2023/12/23 06:00:32;;;;;;;;;;;8.50;99.90;;;;;;5058858;28;19928;-65
2023/12/23 06:03:00;;;;;;;;;;;8.50;99.90;;;;;;5061819;28;20045;-65
2023/12/23 06:05:27;;;;;;;;;;;8.40;99.90;;;;;;5062046;28;19920;-65
2023/12/23 06:07:57;;;;;;;;;;;8.40;99.90;;;;;;5049739;28;20015;-65
2023/12/23 06:10:25;;;;;;;;;;;8.40;99.90;;;;;;5058918;28;19920;-65
2023/12/23 06:12:53;;;;;;;;;;;8.40;99.90;;;;;;5061020;28;19924;-65
2023/12/23 06:15:21;;;;;;;;;;;8.40;99.90;;;;;;5063620;28;19927;-65
2023/12/23 06:17:50;;;;;;;;;;;8.40;99.90;;;;;;5062296;28;19963;-65
2023/12/23 06:20:19;;;;;;;;;;;8.40;99.90;;;;;;5061910;28;19920;-66
2023/12/23 06:22:46;;;;;;;;;;;8.50;99.90;;;;;;5063602;28;19924;-66
2023/12/23 06:25:16;;;;;;;;;;;8.60;99.90;;;;;;5050705;28;20296;-65
2023/12/23 06:27:43;;;;;;;;;;;8.60;99.90;;;;;;5046203;28;19974;-65
2023/12/23 06:30:12;;;;;;;;;;;8.60;99.90;;;;;;5065324;28;19924;-66
2023/12/23 06:32:40;;;;;;;;;;;8.60;99.90;;;;;;5063670;28;20458;-65
2023/12/23 06:35:08;;;;;;;;;;;8.60;99.90;;;;;;5061699;28;19948;-65
2023/12/23 06:37:36;;;;;;;;;;;8.70;99.90;;;;;;5061327;28;19966;-64
2023/12/23 06:40:04;;;;;;;;;;;8.70;99.90;;;;;;5065025;28;20337;-65
2023/12/23 06:42:33;;;;;;;;;;;8.60;99.90;;;;;;5065049;28;19966;-65
2023/12/23 06:45:01;;;;;;;;;;;8.70;99.90;;;;;;5053836;28;19928;-65
2023/12/23 06:47:28;;;;;;;;;;;8.70;99.90;;;;;;5062325;28;19924;-66
2023/12/23 06:49:56;;;;;;;;;;;8.70;99.90;;;;;;5057580;28;19928;-66
2023/12/23 06:52:24;;;;;;;;;;;8.70;99.90;;;;;;5054661;28;20007;-66
2023/12/23 06:54:52;;;;;;;;;;;8.80;99.90;;;;;;5047762;28;19933;-66
2023/12/23 06:57:20;;;;;;;;;;;8.80;99.90;;;;;;5051509;28;20392;-65
2023/12/23 06:59:49;;;;;;;;;;;8.80;99.90;;;;;;5050562;28;19987;-64
2023/12/23 07:02:17;;;;;;;;;;;8.80;99.90;;;;;;5053111;28;19975;-65
2023/12/23 07:04:45;;;;;;;;;;;8.80;99.90;;;;;;5052131;28;19925;-67
2023/12/23 07:07:13;;;;;;;;;;;8.80;99.90;;;;;;5054502;28;20015;-65
2023/12/23 07:09:41;;;;;;;;;;;8.90;99.90;;;;;;5051723;28;19929;-65
2023/12/23 07:12:09;;;;;;;;;;;8.80;99.90;;;;;;5062737;28;19924;-65
2023/12/23 07:14:37;;;;;;;;;;;8.80;99.90;;;;;;5054796;28;20360;-64
2023/12/23 07:17:06;;;;;;;;;;;8.80;99.90;;;;;;5052684;28;19921;-65
2023/12/23 07:19:34;;;;;;;;;;;8.80;99.90;;;;;;5049489;28;20387;-64
2023/12/23 07:22:04;;;;;;;;;;;8.80;99.90;;;;;;5043528;28;20018;-64
2023/12/23 07:24:32;;;;;;;;;;;8.80;99.90;;;;;;5051368;28;19928;-65
2023/12/23 07:27:02;;;;;;;;;;;8.80;99.90;;;;;;5052274;28;20375;-65
2023/12/23 07:29:30;;;;;;;;;;;8.70;99.90;;;;;;5055231;28;20019;-67
2023/12/23 07:31:58;;;;;;;;;;;8.70;99.90;;;;;;5055615;28;20252;-65
2023/12/23 07:34:27;;;;;;;;;;;8.80;99.90;;;;;;5049812;28;19952;-64
2023/12/23 07:36:54;;;;;;;;;;;8.70;99.90;;;;;;5046240;28;19948;-64
2023/12/23 07:39:22;;;;;;;;;;;8.70;99.90;;;;;;5047591;28;19967;-64
2023/12/23 07:41:50;;;;;;;;;;;8.70;99.90;;;;;;5046589;28;19921;-66
2023/12/23 07:44:18;;;;;;;;;;;8.70;99.90;;;;;;5042356;28;19925;-70
2023/12/23 07:46:46;;;;;;;;;;;8.70;99.90;;;;;;5040091;28;20421;-64
2023/12/23 07:49:13;;;;;;;;;;;8.70;99.90;;;;;;5039189;28;19928;-64
2023/12/23 07:51:43;;;;;;;;;;;8.70;99.90;;;;;;5040085;28;19935;-63
2023/12/23 07:54:10;;;;;;;;;;;8.70;99.90;;;;;;5039545;28;19928;-68
2023/12/23 07:56:38;;;;;;;;;;;8.70;99.90;;;;;;5040485;28;20354;-66
2023/12/23 07:59:06;;;;;;;;;;;8.70;99.90;;;;;;5038612;28;19928;-62
2023/12/23 08:01:34;;;;;;;;;;;8.60;99.90;;;;;;5039715;28;20410;-63
2023/12/23 08:04:01;;;;;;;;;;;8.60;99.90;;;;;;5039034;28;19978;-62
2023/12/23 08:06:29;;;;;;;;;;;8.60;99.90;;;;;;5038926;28;19935;-66
2023/12/23 08:08:58;;;;;;;;;;;8.60;99.90;;;;;;5038601;28;19927;-65
2023/12/23 08:11:26;;;;;;;;;;;8.60;99.90;;;;;;5039020;28;19970;-65
2023/12/23 08:13:54;;;;;;;;;;;8.60;99.90;;;;;;5039021;28;19924;-65
2023/12/23 08:16:22;;;;;;;;;;;8.50;99.90;;;;;;5039480;28;20024;-63
2023/12/23 08:18:50;;;;;;;;;;;8.60;99.90;;;;;;5038258;28;19929;-66
2023/12/23 08:21:18;;;;;;;;;;;8.60;99.90;;;;;;5039742;28;20028;-66
2023/12/23 08:23:45;;;;;;;;;;;8.60;99.90;;;;;;5039375;28;19928;-66
2023/12/23 08:26:14;;;;;;;;;;;8.50;99.90;;;;;;5039367;28;20065;-64
2023/12/23 08:28:42;;;;;;;;;;;8.60;99.90;;;;;;5037790;28;19933;-64
2023/12/23 08:31:13;;;;;;;;;;;8.60;99.90;;;;;;5039127;28;20019;-65
2023/12/23 08:33:41;;;;;;;;;;;8.50;99.90;;;;;;5039366;28;19928;-63
2023/12/23 08:36:09;;;;;;;;;;;8.60;99.90;;;;;;5038726;28;19948;-63
2023/12/23 08:38:36;;;;;;;;;;;8.60;99.90;;;;;;5037082;28;19928;-63
2023/12/23 08:41:04;;;;;;;;;;;8.60;99.90;;;;;;5038534;28;19986;-63
2023/12/23 08:43:33;;;;;;;;;;;8.60;99.90;;;;;;5038364;28;20880;-65
2023/12/23 08:46:01;;;;;;;;;;;8.60;99.90;;;;;;5038379;28;19925;-64
2023/12/23 08:48:29;;;;;;;;;;;8.60;99.90;;;;;;5036888;28;19931;-67
2023/12/23 08:50:57;;;;;;;;;;;8.60;99.90;;;;;;5039039;28;19928;-65
2023/12/23 08:53:24;;;;;;;;;;;8.60;99.90;;;;;;5036767;28;20319;-67
2023/12/23 08:55:52;;;;;;;;;;;8.60;99.90;;;;;;5037176;28;19975;-63
2023/12/23 08:58:20;;;;;;;;;;;8.60;99.90;;;;;;5039173;28;19982;-61
2023/12/23 09:00:49;;;;;;;;;;;8.70;99.90;;;;;;5039255;28;19932;-66
2023/12/23 09:03:17;;;;;;;;;;;8.70;99.90;;;;;;5039393;28;20050;-64
2023/12/23 09:05:45;;;;;;;;;;;8.70;99.90;;;;;;5038186;28;19929;-63
2023/12/23 09:08:14;;;;;;;;;;;8.70;99.90;;;;;;5035309;28;19928;-63
2023/12/23 09:10:41;;;;;;;;;;;8.70;99.90;;;;;;5037220;28;19955;-63
2023/12/23 09:13:09;;;;;;;;;;;8.70;99.90;;;;;;5038618;28;20011;-66
2023/12/23 09:15:38;;;;;;;;;;;8.70;99.90;;;;;;5039216;28;19978;-62
2023/12/23 09:18:07;;;;;;;;;;;8.70;99.90;;;;;;5037150;28;20455;-62
2023/12/23 09:20:35;;;;;;;;;;;8.70;99.90;;;;;;5037970;28;19935;-61
2023/12/23 09:23:03;;;;;;;;;;;8.70;99.90;;;;;;5038036;28;19946;-63
2023/12/23 09:25:31;;;;;;;;;;;8.70;99.90;;;;;;5038224;28;19929;-65
2023/12/23 09:27:59;;;;;;;;;;;8.70;99.90;;;;;;5036510;28;19936;-65
2023/12/23 09:30:26;;;;;;;;;;;8.60;99.90;;;;;;5037697;28;19921;-63
2023/12/23 09:32:54;;;;;;;;;;;8.70;99.90;;;;;;5037965;28;20011;-64
2023/12/23 09:35:23;;;;;;;;;;;8.70;99.90;;;;;;5037954;28;19972;-62
2023/12/23 09:37:51;;;;;;;;;;;8.70;99.90;;;;;;5037351;28;20379;-64
2023/12/23 09:40:19;;;;;;;;;;;8.80;99.90;;;;;;5038915;28;19978;-64
2023/12/23 09:42:47;;;;;;;;;;;8.80;99.90;;;;;;5039179;28;20311;-62
2023/12/23 09:45:16;;;;;;;;;;;8.80;99.90;;;;;;5038410;28;19929;-66
2023/12/23 09:47:43;;;;;;;;;;;8.80;99.90;;;;;;5037880;28;20170;-66
2023/12/23 09:50:11;;;;;;;;;;;8.80;99.90;;;;;;5040566;28;19935;-63
2023/12/23 09:52:41;;;;;;;;;;;8.80;99.90;;;;;;5042794;28;20417;-61
2023/12/23 09:55:10;;;;;;;;;;;8.80;99.90;;;;;;5043005;28;19936;-62
2023/12/23 09:57:38;;;;;;;;;;;8.80;99.90;;;;;;5041044;28;19932;-64
2023/12/23 10:00:06;;;;;;;;;;;8.80;99.90;;;;;;5041302;28;19998;-61
2023/12/23 10:02:34;;;;;;;;;;;8.80;99.90;;;;;;5041870;28;19929;-63
2023/12/23 10:05:01;;;;;;;;;;;8.80;99.90;;;;;;5041038;28;19981;-61
2023/12/23 10:07:29;;;;;;;;;;;8.90;99.90;;;;;;5040572;28;20005;-66
2023/12/23 10:09:59;;;;;;;;;;;8.80;99.90;;;;;;5042162;28;20013;-63
2023/12/23 10:12:26;;;;;;;;;;;8.90;99.90;;;;;;5042117;28;19925;-66
2023/12/23 10:14:54;;;;;;;;;;;8.90;99.90;;;;;;5041584;28;19932;-67
2023/12/23 10:17:22;;;;;;;;;;;8.90;99.90;;;;;;5042120;28;19928;-62
2023/12/23 10:19:52;;;;;;;;;;;8.90;99.90;;;;;;5040523;28;19929;-66
2023/12/23 10:22:20;;;;;;;;;;;9.00;99.90;;;;;;5041413;28;19935;-63
2023/12/23 10:24:48;;;;;;;;;;;9.10;99.90;;;;;;5040754;28;19982;-66
2023/12/23 10:27:17;;;;;;;;;;;9.10;99.90;;;;;;5041710;28;19928;-66
2023/12/23 10:29:45;;;;;;;;;;;9.10;99.90;;;;;;5039757;28;19929;-62
2023/12/23 10:32:13;;;;;;;;;;;9.10;99.90;;;;;;5041452;28;20463;-66
2023/12/23 10:34:43;;;;;;;;;;;9.10;99.90;;;;;;5041174;28;19932;-66
2023/12/23 10:37:12;;;;;;;;;;;9.20;99.90;;;;;;5041397;28;19928;-65
2023/12/23 10:39:44;;;;;;;;;;;9.20;99.90;;;;;;5039959;28;20505;-64
2023/12/23 10:42:19;;;;;;;;;;;9.20;99.90;;;;;;5040277;28;19935;-68
2023/12/23 10:44:49;;;;;;;;;;;9.20;99.90;;;;;;5041149;28;20517;-63
2023/12/23 10:47:17;;;;;;;;;;;9.30;99.90;;;;;;5041213;28;19932;-62
2023/12/23 10:49:45;;;;;;;;;;;9.30;99.90;;;;;;5040447;28;20412;-65
2023/12/23 10:52:14;;;;;;;;;;;9.30;99.90;;;;;;5040026;28;19940;-64
2023/12/23 10:54:42;;;;;;;;;;;9.30;99.90;;;;;;5041105;28;19963;-62
2023/12/23 10:57:10;;;;;;;;;;;9.40;99.90;;;;;;5041156;28;19932;-67
2023/12/23 10:59:38;;;;;;;;;;;9.40;99.90;;;;;;5039718;28;19979;-62
2023/12/23 11:02:11;;;;;;;;;;;9.40;99.90;;;;;;5040799;28;19929;-64
2023/12/23 11:04:40;;;;;;;;;;;9.40;99.90;;;;;;5040925;28;20392;-63
2023/12/23 11:07:09;;;;;;;;;;;9.30;99.90;;;;;;5041255;28;19929;-62
2023/12/23 11:09:37;;;;;;;;;;;9.30;99.90;;;;;;5040217;28;19998;-62
2023/12/23 11:12:05;;;;;;;;;;;9.30;99.90;;;;;;5039704;28;19970;-62
2023/12/23 11:14:33;;;;;;;;;;;9.30;99.90;;;;;;5040043;28;20319;-64
2023/12/23 11:17:01;;;;;;;;;;;9.30;99.90;;;;;;5041154;28;19988;-66
2023/12/23 11:19:30;;;;;;;;;;;9.20;99.90;;;;;;5039408;28;19983;-64
2023/12/23 11:22:13;;;;;;;;;;;9.20;99.90;;;;;;5040829;28;19925;-63
2023/12/23 11:24:40;;;;;;;;;;;9.20;99.90;;;;;;5037583;28;20873;-66
2023/12/23 11:27:08;;;;;;;;;;;9.20;99.90;;;;;;5040656;28;19929;-62
2023/12/23 11:29:36;;;;;;;;;;;9.10;99.90;;;;;;5039442;28;19934;-63
2023/12/23 11:32:11;;;;;;;;;;;9.10;99.90;;;;;;5040069;28;20411;-63
2023/12/23 11:34:40;;;;;;;;;;;9.10;99.90;;;;;;5040312;28;20479;-65
2023/12/23 11:37:08;;;;;;;;;;;9.10;99.90;;;;;;5040152;28;19928;-62
2023/12/23 11:39:36;;;;;;;;;;;9.20;99.90;;;;;;5038836;28;19935;-63
2023/12/23 11:42:05;;;;;;;;;;;9.20;99.90;;;;;;5039081;28;20358;-63
2023/12/23 11:44:33;;;;;;;;;;;9.20;99.90;;;;;;5038640;28;19937;-66
2023/12/23 11:47:02;;;;;;;;;;;9.20;99.90;;;;;;5039981;28;19936;-65
2023/12/23 11:49:30;;;;;;;;;;;9.20;99.90;;;;;;5038054;28;19958;-66
2023/12/23 11:52:00;;;;;;;;;;;9.20;99.90;;;;;;5038867;28;19931;-66
2023/12/23 11:54:28;;;;;;;;;;;9.20;99.90;;;;;;5038898;28;19929;-65
2023/12/23 11:56:56;;;;;;;;;;;9.30;99.90;;;;;;5038978;28;19921;-66
2023/12/23 11:59:24;;;;;;;;;;;9.30;99.90;;;;;;5037065;28;19924;-65
2023/12/23 12:01:52;;;;;;;;;;;9.30;99.90;;;;;;5039474;28;20143;-64
2023/12/23 12:04:20;;;;;;;;;;;9.40;99.90;;;;;;5038608;28;19999;-65
2023/12/23 12:06:49;;;;;;;;;;;9.50;99.90;;;;;;5039321;28;19935;-65
2023/12/23 12:09:19;;;;;;;;;;;9.50;99.90;;;;;;5037409;28;19932;-63
2023/12/23 12:11:46;;;;;;;;;;;9.60;99.90;;;;;;5047303;28;19974;-62
2023/12/23 12:14:14;;;;;;;;;;;9.60;99.90;;;;;;5048470;28;19936;-62
2023/12/23 12:16:42;;;;;;;;;;;9.70;99.90;;;;;;5059864;28;20460;-63
2023/12/23 12:19:12;;;;;;;;;;;9.70;99.90;;;;;;5049770;28;19929;-61
2023/12/23 12:21:41;;;;;;;;;;;9.70;99.90;;;;;;5053254;28;20348;-63
2023/12/23 12:24:08;;;;;;;;;;;9.70;99.90;;;;;;5050752;28;19931;-61
2023/12/23 12:26:38;;;;;;;;;;;9.80;99.90;;;;;;5049511;28;19921;-63
2023/12/23 12:29:06;;;;;;;;;;;9.80;99.90;;;;;;5058904;28;19921;-61
2023/12/23 12:31:34;;;;;;;;;;;9.80;99.90;;;;;;5064788;28;19936;-63
2023/12/23 12:34:01;;;;;;;;;;;9.80;99.90;;;;;;5059379;28;19920;-63
2023/12/23 12:36:29;;;;;;;;;;;9.80;99.90;;;;;;5062313;28;20293;-62
2023/12/23 12:38:57;;;;;;;;;;;9.80;99.90;;;;;;5060198;28;19920;-63
2023/12/23 12:41:25;;;;;;;;;;;9.80;99.90;;;;;;5059999;28;19928;-64
2023/12/23 12:43:55;;;;;;;;;;;9.90;99.90;;;;;;5059254;28;19924;-63
2023/12/23 12:46:23;;;;;;;;;;;9.80;99.90;;;;;;5061123;28;19927;-63
2023/12/23 12:48:51;;;;;;;;;;;9.80;99.90;;;;;;5062048;28;20449;-63
2023/12/23 12:51:20;;;;;;;;;;;9.80;99.90;;;;;;5060889;28;19920;-63
2023/12/23 12:53:48;;;;;;;;;;;9.80;99.90;;;;;;5059497;28;19920;-63
2023/12/23 12:56:20;;;;;;;;;;;9.90;99.90;;;;;;5059019;28;19966;-63
2023/12/23 12:58:50;;;;;;;;;;;9.90;99.90;;;;;;5058723;28;19921;-63
2023/12/23 13:01:19;;;;;;;;;;;9.90;99.90;;;;;;5059459;28;19928;-62
2023/12/23 13:03:47;;;;;;;;;;;9.90;99.90;;;;;;5062565;28;20402;-63
2023/12/23 13:06:15;;;;;;;;;;;10.00;99.90;;;;;;5061553;28;19921;-63
2023/12/23 13:08:43;;;;;;;;;;;10.00;99.90;;;;;;5058833;28;19940;-64
2023/12/23 13:11:11;;;;;;;;;;;10.00;99.90;;;;;;5058754;28;19920;-62
2023/12/23 13:13:39;;;;;;;;;;;10.00;99.90;;;;;;5062437;28;19970;-62
2023/12/23 13:16:07;;;;;;;;;;;10.10;99.90;;;;;;5063172;28;19920;-63
2023/12/23 13:18:36;;;;;;;;;;;10.10;99.90;;;;;;5059052;28;19921;-65
2023/12/23 13:21:20;;;;;;;;;;;10.10;99.90;;;;;;5060197;28;20437;-63
2023/12/23 13:23:48;;;;;;;;;;;10.10;99.90;;;;;;5061741;28;19967;-63
2023/12/23 13:26:16;;;;;;;;;;;10.10;99.90;;;;;;5046013;28;19994;-62
2023/12/23 13:28:44;;;;;;;;;;;10.10;99.90;;;;;;5055391;28;19932;-64
2023/12/23 13:31:15;;;;;;;;;;;10.10;99.90;;;;;;5063085;28;20436;-63
2023/12/23 13:33:44;;;;;;;;;;;10.10;99.90;;;;;;5066418;28;19985;-63
2023/12/23 13:36:13;;;;;;;;;;;10.10;99.90;;;;;;5066333;28;19920;-63
2023/12/23 13:38:42;;;;;;;;;;;10.00;99.90;;;;;;5054491;28;20290;-64
2023/12/23 13:41:13;;;;;;;;;;;10.10;99.90;;;;;;5062759;28;20396;-63
2023/12/23 13:43:41;;;;;;;;;;;10.10;99.90;;;;;;5066679;28;20303;-64
2023/12/23 13:46:08;;;;;;;;;;;10.10;99.90;;;;;;5066181;28;19920;-62
2023/12/23 13:48:36;;;;;;;;;;;10.10;99.90;;;;;;5062408;28;19925;-63
2023/12/23 13:51:06;;;;;;;;;;;10.10;99.90;;;;;;5062452;28;20302;-63
2023/12/23 13:53:34;;;;;;;;;;;10.10;99.90;;;;;;5064613;28;20297;-63
2023/12/23 13:56:08;;;;;;;;;;;10.20;99.90;;;;;;5046041;28;19967;-63
2023/12/23 13:58:35;;;;;;;;;;;10.20;99.90;;;;;;5048119;28;20402;-63
2023/12/23 14:01:03;;;;;;;;;;;10.10;99.90;;;;;;5065902;28;19921;-62
2023/12/23 14:03:31;;;;;;;;;;;10.10;99.90;;;;;;5063730;28;19921;-63
2023/12/23 14:05:59;;;;;;;;;;;10.10;99.90;;;;;;5062236;28;19924;-63
2023/12/23 14:08:28;;;;;;;;;;;10.10;99.90;;;;;;5062948;28;20028;-63
2023/12/23 14:10:56;;;;;;;;;;;10.10;99.90;;;;;;5065660;28;19932;-63
2023/12/23 14:13:24;;;;;;;;;;;10.10;99.90;;;;;;5064667;28;19958;-62
2023/12/23 14:15:51;;;;;;;;;;;10.00;99.90;;;;;;5062580;28;19924;-63
2023/12/23 14:18:19;;;;;;;;;;;9.90;99.90;;;;;;5061572;28;19928;-63
2023/12/23 14:20:47;;;;;;;;;;;9.90;99.90;;;;;;5065179;28;19920;-63
2023/12/23 14:23:15;;;;;;;;;;;9.90;99.90;;;;;;5065547;28;19921;-63
2023/12/23 14:25:44;;;;;;;;;;;9.90;99.90;;;;;;5045204;28;20024;-64
2023/12/23 14:28:12;;;;;;;;;;;9.80;99.90;;;;;;5052256;28;20007;-64
2023/12/23 14:30:42;;;;;;;;;;;9.80;99.90;;;;;;5061523;28;19969;-63
2023/12/23 14:33:10;;;;;;;;;;;9.80;99.90;;;;;;5061724;28;20015;-63
2023/12/23 14:35:38;;;;;;;;;;;9.80;99.90;;;;;;5068872;28;19924;-64